createdAt,value
2022-08-22T05:04:24.477Z,18.40
2022-08-22T05:09:31.877Z,18.30
2022-08-22T05:14:43.533Z,18.30
2022-08-22T05:19:53.152Z,18.40
2022-08-22T05:25:01.490Z,18.40
2022-08-22T05:30:13.546Z,18.40
2022-08-22T05:35:19.573Z,18.40
2022-08-22T05:40:29.121Z,18.30
2022-08-22T05:45:34.540Z,18.20
2022-08-22T05:50:43.255Z,18.10
2022-08-22T05:56:12.549Z,18.10
2022-08-22T06:01:34.495Z,18.00
2022-08-22T06:06:48.089Z,18.00
2022-08-22T06:12:05.347Z,18.00
2022-08-22T06:17:23.058Z,17.90
2022-08-22T06:22:33.970Z,17.90
2022-08-22T06:27:37.909Z,17.90
2022-08-22T06:32:59.564Z,18.00
2022-08-22T06:38:03.411Z,18.00
2022-08-22T06:43:06.296Z,18.10
2022-08-22T06:48:08.478Z,18.10
2022-08-22T06:53:38.439Z,18.10
2022-08-22T06:58:50.935Z,18.20
2022-08-22T07:04:05.209Z,18.20
2022-08-22T07:09:20.870Z,18.20
2022-08-22T07:14:32.468Z,18.30
2022-08-22T07:20:31.704Z,18.30
2022-08-22T07:25:54.278Z,18.30
2022-08-22T07:30:59.287Z,18.30
2022-08-22T07:43:31.610Z,18.40
2022-08-22T07:49:09.886Z,18.40
2022-08-22T07:54:17.254Z,18.40
2022-08-22T07:59:21.448Z,18.50
2022-08-22T08:04:30.401Z,18.70
2022-08-22T08:09:41.144Z,18.90
2022-08-22T08:14:51.734Z,19.00
2022-08-22T08:19:55.442Z,19.10
2022-08-22T08:25:02.739Z,19.20
2022-08-22T08:30:35.591Z,19.30
2022-08-22T08:36:03.489Z,19.50
2022-08-22T08:41:37.639Z,19.80
2022-08-22T08:47:18.982Z,20.00
2022-08-22T08:52:31.800Z,20.20
2022-08-22T08:57:54.891Z,20.40
2022-08-22T09:03:31.114Z,20.60
2022-08-22T09:09:04.391Z,20.80
2022-08-22T09:14:54.116Z,20.90
2022-08-22T09:20:02.323Z,21.10
2022-08-22T09:25:49.864Z,21.20
2022-08-22T09:31:21.807Z,21.30
2022-08-22T09:37:08.037Z,21.40
2022-08-22T09:42:38.169Z,21.50
2022-08-22T09:48:27.613Z,21.60
2022-08-22T09:53:50.983Z,21.70
2022-08-22T09:59:05.005Z,21.70
2022-08-22T10:04:47.977Z,21.80
2022-08-22T10:10:27.361Z,21.70
2022-08-22T10:17:08.997Z,21.90
2022-08-22T10:22:21.260Z,22.10
2022-08-22T10:28:12.466Z,22.40
2022-08-22T10:33:34.827Z,22.60
2022-08-22T10:38:47.066Z,22.80
2022-08-22T10:44:28.319Z,22.90
2022-08-22T10:50:39.306Z,23.00
2022-08-22T10:56:04.864Z,23.20
2022-08-22T11:01:40.503Z,23.50
2022-08-22T11:07:07.731Z,23.80
2022-08-22T11:12:45.736Z,24.10
2022-08-22T11:18:14.873Z,24.30
2022-08-22T11:23:55.625Z,24.40
2022-08-22T11:36:08.721Z,24.70
2022-08-22T11:41:43.229Z,24.80
2022-08-22T11:46:50.079Z,24.90
2022-08-22T11:52:24.365Z,24.90
2022-08-22T11:58:20.028Z,25.10
2022-08-22T12:03:32.642Z,25.20
2022-08-22T12:09:24.803Z,25.40
2022-08-22T12:15:18.359Z,25.50
2022-08-22T12:20:41.464Z,25.50
2022-08-22T12:26:57.703Z,25.50
2022-08-22T12:32:43.900Z,25.50
2022-08-22T12:38:28.002Z,25.50
2022-08-22T12:43:47.109Z,25.40
2022-08-22T12:49:23.186Z,25.30
2022-08-22T12:54:50.182Z,25.20
2022-08-22T13:00:26.759Z,25.20
2022-08-22T13:05:37.886Z,25.30
2022-08-22T13:10:48.706Z,25.50
2022-08-22T13:22:45.449Z,25.80
2022-08-22T13:27:52.247Z,25.60
2022-08-22T13:33:04.926Z,25.60
2022-08-22T13:38:50.282Z,25.60
2022-08-22T13:44:15.619Z,25.50
2022-08-22T13:49:35.848Z,25.60
2022-08-22T13:55:02.635Z,25.60
2022-08-22T14:00:39.257Z,25.60
2022-08-22T14:06:37.277Z,25.60
2022-08-22T14:11:51.808Z,25.60
2022-08-22T14:16:58.560Z,25.80
2022-08-22T14:22:08.353Z,25.80
2022-08-22T14:27:46.685Z,26.00
2022-08-22T14:33:00.700Z,26.30
2022-08-22T14:38:37.216Z,26.80
2022-08-22T14:43:53.263Z,26.90
2022-08-22T14:49:19.382Z,26.90
2022-08-22T14:54:29.055Z,27.10
2022-08-22T14:59:50.171Z,27.30
2022-08-22T15:04:55.053Z,27.20
2022-08-22T15:10:11.755Z,27.30
2022-08-22T15:15:29.990Z,27.20
2022-08-22T15:20:45.420Z,27.00
2022-08-22T15:26:18.803Z,27.10
2022-08-22T15:31:22.378Z,27.20
2022-08-22T15:36:27.440Z,27.20
2022-08-22T15:41:44.285Z,27.10
2022-08-22T15:47:34.844Z,26.90
2022-08-22T15:53:10.421Z,26.90
2022-08-22T15:58:22.770Z,27.00
2022-08-22T16:03:32.424Z,27.00
2022-08-22T16:08:37.411Z,27.00
2022-08-22T16:13:44.269Z,26.90
2022-08-22T16:18:49.412Z,26.90
2022-08-22T16:23:52.963Z,26.90
2022-08-22T16:29:07.369Z,26.80
2022-08-22T16:34:18.534Z,26.90
2022-08-22T16:39:23.776Z,26.80
2022-08-22T16:44:28.624Z,26.70
2022-08-22T16:49:37.036Z,26.60
2022-08-22T16:54:47.001Z,26.50
2022-08-22T17:00:27.629Z,26.40
2022-08-22T17:05:59.861Z,26.30
2022-08-22T17:11:22.966Z,26.30
2022-08-22T17:17:10.494Z,26.20
2022-08-22T17:22:30.123Z,26.20
2022-08-22T17:27:44.440Z,26.10
2022-08-22T17:33:17.568Z,26.10
2022-08-22T17:38:42.096Z,25.90
2022-08-22T17:44:05.875Z,25.90
2022-08-22T17:49:55.997Z,25.80
2022-08-22T17:55:19.150Z,25.70
2022-08-22T18:00:31.827Z,25.60
2022-08-22T18:06:17.185Z,25.50
2022-08-22T18:11:40.068Z,25.40
2022-08-22T18:16:46.407Z,25.30
2022-08-22T18:22:19.486Z,25.10
2022-08-22T18:27:35.786Z,25.10
2022-08-22T18:33:01.364Z,25.00
2022-08-22T18:38:21.011Z,24.90
2022-08-22T18:43:48.227Z,24.80
2022-08-22T18:49:14.036Z,24.70
2022-08-22T18:54:12.449Z,24.60
2022-08-22T18:59:54.837Z,24.50
2022-08-22T19:05:51.614Z,24.40
2022-08-22T19:11:56.471Z,24.30
